M I D A S
Marine Information and Data Acquisition System
Tripno 431 of the Zeeleeuw from 2003-02-14 07:41:10 to 2003-02-14 14:48:10
Back to CruiseResearch ActivitiesStationsMapUnderway DataData graphs

EquipmentUnitsComment
TimeDGPSUTC
LatitudeDGPSDM.mWGS84
LongitudeDGPSDM.mWGS84
HeadingGyrodeg 
SOGDGPSknotsSpeed over ground
COGDGPSdegCourse over ground
DepthEcho soundermeters200 kHz
Missing or incorrect values are displayed as -999
Navigation data collected by the RV Zeeleeuw from 2003-02-14 07:41:10 to 2003-02-14 14:48:10
                                                                                    Next 1000 lines
Time Latitude Longitude Heading SOG COG Depth
2003-02-14 07:41:19 51°13.657 2°55.873 115.3 4.4 293 -999
2003-02-14 07:41:24 51°13.659 2°55.864 114.5 4.4 292.5 -999
2003-02-14 07:41:29 51°13.661 2°55.856 113.9 4.2 292.1 9
2003-02-14 07:41:34 51°13.663 2°55.848 113 4.1 291.5 -999
2003-02-14 07:41:39 51°13.665 2°55.84 112.2 3.9 291 -999
2003-02-14 07:41:44 51°13.667 2°55.832 111.2 3.8 290.6 8.9
2003-02-14 07:41:48 51°13.668 2°55.826 110.4 3.7 290.4 8.7
2003-02-14 07:41:54 51°13.67 2°55.817 109.2 3.6 289.4 9.2
2003-02-14 07:41:58 51°13.672 2°55.811 107.9 3.5 288.6 9.3
2003-02-14 07:42:03 51°13.673 2°55.804 106.3 3.5 287.6 9.8
2003-02-14 07:42:08 51°13.674 2°55.796 104.5 3.4 286.6 9.9
2003-02-14 07:42:14 51°13.676 2°55.788 102.7 3.4 285.9 10.3
2003-02-14 07:42:19 51°13.677 2°55.781 100.9 3.3 283.8 10.3
2003-02-14 07:42:24 51°13.677 2°55.773 99 3.3 282.7 -999
2003-02-14 07:42:28 51°13.678 2°55.768 97.9 3.1 281.7 10.8
2003-02-14 07:42:34 51°13.679 2°55.761 96.5 2.9 280.6 11.3
2003-02-14 07:42:38 51°13.679 2°55.757 94.7 2.7 280.2 11.1
2003-02-14 07:42:43 51°13.68 2°55.752 92.4 2.3 279.8 -999
2003-02-14 07:42:48 51°13.68 2°55.749 89.3 1.7 280.1 -999
2003-02-14 07:42:54 51°13.68 2°55.746 85.4 1.2 281.8 -999
2003-02-14 07:42:59 51°13.68 2°55.745 81.6 0.9 285.4 -999
2003-02-14 07:43:04 51°13.681 2°55.744 78.2 0.6 292.8 -999
2003-02-14 07:43:08 51°13.681 2°55.744 75.5 0.4 317.2 -999
2003-02-14 07:43:14 51°13.682 2°55.745 71.9 0.3 8.6 7.4
2003-02-14 07:43:19 51°13.683 2°55.746 68.2 0.5 30.4 8
2003-02-14 07:43:24 51°13.684 2°55.747 64.1 0.7 38.2 -999
2003-02-14 07:43:28 51°13.685 2°55.748 59.7 0.9 40.7 7.7
2003-02-14 07:43:34 51°13.686 2°55.75 55.1 1.2 39.5 -999
2003-02-14 07:43:39 51°13.688 2°55.752 49.6 1.3 38.2 -999
2003-02-14 07:43:44 51°13.69 2°55.754 45.7 1.4 36 -999
2003-02-14 07:43:49 51°13.691 2°55.755 41.1 1.5 32.3 11.1
2003-02-14 07:43:54 51°13.693 2°55.757 37.8 1.5 28.5 11.2
2003-02-14 07:43:58 51°13.695 2°55.758 34.8 1.5 24.6 11.2
2003-02-14 07:44:03 51°13.696 2°55.758 32.4 1.4 20.6 11.5
2003-02-14 07:44:08 51°13.698 2°55.759 29.9 1.2 17.7 11.4
2003-02-14 07:44:13 51°13.699 2°55.76 27.5 1.1 16.9 11.5
2003-02-14 07:44:18 51°13.699 2°55.76 25.5 0.9 11.9 11.2
2003-02-14 07:44:23 51°13.7 2°55.76 24.4 0.4 0.2 11.1
2003-02-14 07:44:28 51°13.699 2°55.759 23.9 0.2 243.2 11.5
2003-02-14 07:44:33 51°13.698 2°55.758 23.4 0.5 216.9 11.2
2003-02-14 07:44:38 51°13.697 2°55.757 23.2 0.7 212.5 11.5
2003-02-14 07:44:43 51°13.696 2°55.756 23.2 1 209.2 -999
2003-02-14 07:44:49 51°13.695 2°55.755 23.2 0.9 211.1 -999
2003-02-14 07:44:54 51°13.694 2°55.755 22.6 0.7 214.4 -999
2003-02-14 07:44:59 51°13.694 2°55.754 20.8 0.5 225.4 -999
2003-02-14 07:45:04 51°13.695 2°55.754 17.4 0.3 298.6 -999
2003-02-14 07:45:09 51°13.696 2°55.753 12.9 0.6 339.2 -999
2003-02-14 07:45:14 51°13.698 2°55.753 7.4 1 348.2 -999
2003-02-14 07:45:19 51°13.7 2°55.752 1 1.3 347.9 -999
2003-02-14 07:45:24 51°13.702 2°55.751 354.1 1.8 346 -999
2003-02-14 07:45:29 51°13.705 2°55.749 348.7 1.9 344.3 11.5
2003-02-14 07:45:34 51°13.709 2°55.746 342.3 2.5 338.1 11.6
2003-02-14 07:45:39 51°13.713 2°55.743 338 2.9 334.5 -999
2003-02-14 07:45:43 51°13.716 2°55.74 334.8 3.3 331.3 11.6
2003-02-14 07:45:48 51°13.721 2°55.735 333 3.5 329.9 11
2003-02-14 07:45:53 51°13.725 2°55.73 332.3 4 327.5 10.3
2003-02-14 07:45:58 51°13.731 2°55.724 331.6 4.3 327.1 10.3
2003-02-14 07:46:03 51°13.736 2°55.719 331.6 4.7 326.4 10.3
2003-02-14 07:46:08 51°13.742 2°55.712 331.6 4.9 326.4 10.3
2003-02-14 07:46:13 51°13.748 2°55.706 331.5 5.2 326.2 10.3
2003-02-14 07:46:19 51°13.756 2°55.697 331.1 5.5 326.6 10.4
2003-02-14 07:46:23 51°13.762 2°55.691 331.3 5.9 326.4 10.3
2003-02-14 07:46:28 51°13.77 2°55.683 332.1 6.1 326.9 10.6
2003-02-14 07:46:34 51°13.779 2°55.674 332.5 6.5 327.7 10.7
2003-02-14 07:46:38 51°13.785 2°55.668 332.7 6.7 327.6 10.7
2003-02-14 07:46:43 51°13.794 2°55.66 333.5 6.9 328.6 10.7
2003-02-14 07:46:48 51°13.803 2°55.652 334.7 7 329.2 10.6
2003-02-14 07:46:53 51°13.812 2°55.644 336.3 7.3 330.3 10.6
2003-02-14 07:46:58 51°13.821 2°55.636 337.5 7.4 332 10.6
2003-02-14 07:47:04 51°13.832 2°55.627 339 7.5 333.5 10.3
2003-02-14 07:47:08 51°13.84 2°55.622 339.6 7.6 334.6 10.5
2003-02-14 07:47:14 51°13.852 2°55.613 339.8 7.7 335.2 9.9
2003-02-14 07:47:18 51°13.86 2°55.607 340.7 7.9 335.6 10
2003-02-14 07:47:23 51°13.87 2°55.6 341.4 7.9 336.1 10
2003-02-14 07:47:28 51°13.88 2°55.593 340.8 7.9 335.9 10
2003-02-14 07:47:33 51°13.89 2°55.585 340.4 8 335.7 10
2003-02-14 07:47:39 51°13.903 2°55.576 340.6 8 335.7 10
2003-02-14 07:47:43 51°13.911 2°55.57 340.5 8.1 335.8 10.1
2003-02-14 07:47:48 51°13.921 2°55.563 340.1 8.2 335.3 9.9
2003-02-14 07:47:54 51°13.934 2°55.554 340.4 8.2 335.3 10.1
2003-02-14 07:47:59 51°13.944 2°55.546 340.5 8.2 335.3 10.1
2003-02-14 07:48:03 51°13.952 2°55.54 340.4 8.2 335.6 10
2003-02-14 07:48:08 51°13.963 2°55.533 340.5 8.2 335.4 10.1
2003-02-14 07:48:13 51°13.973 2°55.525 340.6 8.2 335.8 10.1
2003-02-14 07:48:18 51°13.983 2°55.518 340.5 8.2 336 10
2003-02-14 07:48:24 51°13.996 2°55.509 340.9 8.2 336.3 10
2003-02-14 07:48:28 51°14.004 2°55.503 341.1 8.2 336.5 10
2003-02-14 07:48:33 51°14.015 2°55.496 340.9 8.2 336.3 9.8
2003-02-14 07:48:38 51°14.025 2°55.489 341.1 8.2 336.1 9.9
2003-02-14 07:48:43 51°14.036 2°55.482 341.2 8.2 336.5 9.9
2003-02-14 07:48:48 51°14.046 2°55.474 341.2 8.2 336.3 9.9
2003-02-14 07:48:53 51°14.057 2°55.467 341 8.2 336.3 9.8
2003-02-14 07:48:58 51°14.067 2°55.46 341 8.2 336.1 9.7
2003-02-14 07:49:03 51°14.078 2°55.452 341.3 8.2 335.9 9.5
2003-02-14 07:49:08 51°14.088 2°55.445 341.8 8.2 336.2 9.5
2003-02-14 07:49:13 51°14.098 2°55.438 341.5 8.2 336.3 10.1
2003-02-14 07:49:18 51°14.109 2°55.43 341.2 8.2 336.2 10.1
2003-02-14 07:49:23 51°14.119 2°55.422 340.7 8.2 336.2 10.2
2003-02-14 07:49:28 51°14.13 2°55.415 340.2 8.2 335.4 10.3
2003-02-14 07:49:33 51°14.14 2°55.407 339 8.2 334.5 10.3
2003-02-14 07:49:38 51°14.15 2°55.399 337.5 8.2 333.5 10.1
2003-02-14 07:49:43 51°14.16 2°55.39 336.7 8.2 332.2 10.1
2003-02-14 07:49:48 51°14.17 2°55.382 335.6 8.2 331.6 9.9
2003-02-14 07:49:53 51°14.18 2°55.372 333.8 8.1 329.8 10.2
2003-02-14 07:49:58 51°14.189 2°55.363 331.5 8.1 327.9 10.2
2003-02-14 07:50:03 51°14.198 2°55.352 328.7 7.9 325.4 10.3
2003-02-14 07:50:08 51°14.206 2°55.342 327.3 7.7 323.7 10.4
2003-02-14 07:50:14 51°14.215 2°55.33 325.5 7.5 322.5 10.5
2003-02-14 07:50:18 51°14.221 2°55.322 323.8 7.5 322.5 10.1
2003-02-14 07:50:23 51°14.228 2°55.312 322 7 318.8 10.6
2003-02-14 07:50:28 51°14.235 2°55.302 320.3 6.8 317.4 10.6
2003-02-14 07:50:34 51°14.243 2°55.289 318.9 6.7 315.9 9.9
2003-02-14 07:50:38 51°14.248 2°55.281 318.2 6.7 315.7 10.2
2003-02-14 07:50:43 51°14.255 2°55.27 317.8 6.7 314.4 10.7
2003-02-14 07:50:48 51°14.261 2°55.259 317.1 6.7 313.9 10.3
2003-02-14 07:50:54 51°14.269 2°55.246 316.5 6.7 313.9 10.7
2003-02-14 07:50:58 51°14.274 2°55.237 315.7 6.8 312 10.6
2003-02-14 07:51:04 51°14.281 2°55.223 314.7 6.8 311 10.7
2003-02-14 07:51:08 51°14.286 2°55.214 313.1 6.9 310.3 10.7
2003-02-14 07:51:14 51°14.293 2°55.199 312 6.9 308.8 10.8
2003-02-14 07:51:17 51°14.296 2°55.192 311.3 6.9 307.5 10.8
2003-02-14 07:51:23 51°14.303 2°55.178 310.6 6.9 306.8 10.8
2003-02-14 07:51:28 51°14.309 2°55.165 310.2 6.9 306.6 10.7
2003-02-14 07:51:33 51°14.315 2°55.152 310.1 7 306.1 10.7
2003-02-14 07:51:39 51°14.322 2°55.137 310.2 7.1 305.9 10.8
2003-02-14 07:51:43 51°14.326 2°55.126 310.3 7.3 305.9 10.8
2003-02-14 07:51:48 51°14.332 2°55.112 310.1 7.4 305.6 10.4
2003-02-14 07:51:53 51°14.339 2°55.098 309.6 7.6 305.2 10.2
2003-02-14 07:51:59 51°14.346 2°55.08 309.4 7.9 304.8 10.3
2003-02-14 07:52:03 51°14.352 2°55.068 309 8.2 304.5 10.6
2003-02-14 07:52:08 51°14.358 2°55.052 308.7 8.4 304.3 11
2003-02-14 07:52:13 51°14.365 2°55.036 308.2 8.6 304.1 10.5
2003-02-14 07:52:19 51°14.374 2°55.015 307.7 9 303.6 10.3
2003-02-14 07:52:23 51°14.379 2°55.001 307 9.4 302.9 10.7
2003-02-14 07:52:28 51°14.387 2°54.983 306.5 9.5 302.4 10.6
2003-02-14 07:52:33 51°14.394 2°54.964 305.3 9.7 301.7 10.7
2003-02-14 07:52:39 51°14.402 2°54.94 304.8 9.9 300.6 10.8
2003-02-14 07:52:43 51°14.407 2°54.924 302 10.2 298.5 10.8
2003-02-14 07:52:48 51°14.412 2°54.903 296.8 10.2 296.2 11
2003-02-14 07:52:53 51°14.416 2°54.881 291 10.3 290 10.9
2003-02-14 07:52:59 51°14.419 2°54.854 286.2 10.3 285.7 11
2003-02-14 07:53:03 51°14.421 2°54.835 282.3 10.4 280.8 10.5
2003-02-14 07:53:08 51°14.422 2°54.812 279.6 10.5 277.9 10.9
2003-02-14 07:53:13 51°14.423 2°54.788 277.9 10.7 275.6 10.7
2003-02-14 07:53:18 51°14.424 2°54.765 277.6 10.8 274 10.9
2003-02-14 07:53:23 51°14.426 2°54.741 277.6 10.9 274.5 10.6
2003-02-14 07:53:28 51°14.426 2°54.716 277.7 10.9 274.1 11.1
2003-02-14 07:53:34 51°14.427 2°54.687 277.4 10.9 274.1 11.1
2003-02-14 07:53:38 51°14.427 2°54.668 275.4 11 272.3 10.8
2003-02-14 07:53:43 51°14.427 2°54.644 271.1 11 269.8 11
2003-02-14 07:53:47 51°14.425 2°54.625 265.9 10.9 265.1 11
2003-02-14 07:53:53 51°14.421 2°54.597 261 10.9 262.2 11.5
2003-02-14 07:53:59 51°14.415 2°54.57 255.8 10.8 255.7 11.4
2003-02-14 07:54:04 51°14.408 2°54.548 250.4 10.8 249.8 11.1
2003-02-14 07:54:08 51°14.403 2°54.531 246.5 10.8 244.6 11.1
2003-02-14 07:54:14 51°14.394 2°54.506 244.5 10.9 242.6 10.4
2003-02-14 07:54:18 51°14.388 2°54.489 243 10.9 240.4 9.8
2003-02-14 07:54:23 51°14.38 2°54.468 242.9 11 240.1 10
2003-02-14 07:54:28 51°14.373 2°54.446 244 11.1 240.8 9.9
2003-02-14 07:54:33 51°14.365 2°54.424 244.6 11.2 241.3 9.7
2003-02-14 07:54:38 51°14.358 2°54.402 244 11.4 241.9 9.6
2003-02-14 07:54:43 51°14.35 2°54.379 245 11.6 241.5 9.5
2003-02-14 07:54:48 51°14.342 2°54.356 244.5 11.6 241.5 9.1
2003-02-14 07:54:52 51°14.336 2°54.337 244.7 11.9 241.9 9.6
2003-02-14 07:54:58 51°14.326 2°54.309 244.4 12 241.3 9.4
2003-02-14 07:55:03 51°14.318 2°54.285 244.7 12.2 241.9 9.1
2003-02-14 07:55:08 51°14.31 2°54.262 244.3 12.2 241 9.2
2003-02-14 07:55:14 51°14.3 2°54.232 244.6 12.2 241 9.2
2003-02-14 07:55:18 51°14.293 2°54.214 244.7 12.4 240.7 9.1
2003-02-14 07:55:23 51°14.286 2°54.189 243.8 12.4 242.2 9.5
2003-02-14 07:55:28 51°14.277 2°54.165 244.7 12.4 240.3 9.2
2003-02-14 07:55:34 51°14.267 2°54.137 243.9 12.5 241.3 9.2
2003-02-14 07:55:38 51°14.26 2°54.117 244.8 12.5 241.1 9.2
2003-02-14 07:55:43 51°14.252 2°54.093 243.9 12.5 241.2 9
2003-02-14 07:55:48 51°14.244 2°54.068 244 12.5 241.3 9.4
2003-02-14 07:55:54 51°14.234 2°54.039 245.3 12.5 241.9 9.2
2003-02-14 07:55:58 51°14.227 2°54.02 244.6 12.5 241.4 8.9
2003-02-14 07:56:03 51°14.219 2°53.996 243.7 12.5 241.9 9.4
2003-02-14 07:56:08 51°14.211 2°53.97 245.3 12.6 241.8 8.8
2003-02-14 07:56:13 51°14.202 2°53.947 244.3 12.6 240.9 9.2
2003-02-14 07:56:18 51°14.194 2°53.922 244.5 12.6 241.3 9.1
2003-02-14 07:56:23 51°14.185 2°53.898 244.5 12.6 241.2 9.3
2003-02-14 07:56:28 51°14.177 2°53.873 245 12.6 242.1 9.2
2003-02-14 07:56:33 51°14.169 2°53.849 244.7 12.6 241.9 9.4
2003-02-14 07:56:39 51°14.159 2°53.819 245.1 12.6 242.1 9.2
2003-02-14 07:56:44 51°14.151 2°53.794 244.9 12.7 241.9 9.4
2003-02-14 07:56:48 51°14.144 2°53.774 244.8 12.7 241.9 9.3
2003-02-14 07:56:53 51°14.135 2°53.748 245.2 12.9 241.9 9.2
2003-02-14 07:56:58 51°14.127 2°53.722 244.9 13.1 242.3 9.6
2003-02-14 07:57:04 51°14.117 2°53.691 245.3 13.2 241.9 9.5
2003-02-14 07:57:08 51°14.109 2°53.67 244.5 13.4 241.6 9
2003-02-14 07:57:13 51°14.101 2°53.643 244.8 13.5 241.9 9.4
2003-02-14 07:57:19 51°14.09 2°53.612 245.4 13.6 242.1 9.3
2003-02-14 07:57:23 51°14.083 2°53.59 245 13.7 241.9 9.3
2003-02-14 07:57:28 51°14.074 2°53.563 245.1 13.8 242.5 8.8
2003-02-14 07:57:32 51°14.067 2°53.542 244.8 13.8 242.1 9.2
2003-02-14 07:57:38 51°14.056 2°53.509 244.6 13.9 241.9 9.5
2003-02-14 07:57:43 51°14.047 2°53.482 245.2 13.9 242 9.1
2003-02-14 07:57:48 51°14.037 2°53.455 244.1 13.9 242.1 9.6
2003-02-14 07:57:53 51°14.029 2°53.427 245.3 14 241.3 9.4
2003-02-14 07:57:58 51°14.019 2°53.4 244.4 14 242.3 9.4
2003-02-14 07:58:03 51°14.01 2°53.373 244.2 14 241.7 9.5
2003-02-14 07:58:08 51°14.001 2°53.345 245.1 14.1 241.6 9.5
2003-02-14 07:58:13 51°13.991 2°53.318 244.8 14.1 242.2 9.6
2003-02-14 07:58:18 51°13.983 2°53.29 245.3 14.1 242.4 9.8
2003-02-14 07:58:23 51°13.973 2°53.262 245.6 14.2 242.7 9.8
2003-02-14 07:58:28 51°13.965 2°53.234 245.9 14.2 242.4 9.9
2003-02-14 07:58:34 51°13.953 2°53.201 245 14.2 243.2 10
2003-02-14 07:58:38 51°13.947 2°53.178 245.7 14.2 242.5 9.7
2003-02-14 07:58:43 51°13.937 2°53.151 244.7 14.2 242.9 9.9
2003-02-14 07:58:48 51°13.928 2°53.123 245.1 14.2 241.8 10.1
2003-02-14 07:58:53 51°13.919 2°53.095 245.7 14.2 242.6 9.6
2003-02-14 07:58:58 51°13.909 2°53.068 244.7 14.3 241.7 9.8
2003-02-14 07:59:03 51°13.901 2°53.039 245.4 14.3 242.7 9.9
2003-02-14 07:59:08 51°13.891 2°53.012 244.8 14.2 242 10.1
2003-02-14 07:59:13 51°13.882 2°52.984 245.3 14.3 242.1 10
2003-02-14 07:59:18 51°13.872 2°52.956 244.8 14.3 242.6 10.2
2003-02-14 07:59:23 51°13.863 2°52.928 244.6 14.3 242.1 10.1
2003-02-14 07:59:28 51°13.854 2°52.9 245.3 14.3 241.8 10.3
2003-02-14 07:59:34 51°13.843 2°52.866 245.4 14.3 242.7 10.3
2003-02-14 07:59:39 51°13.833 2°52.839 244.3 14.3 241.4 10.4
2003-02-14 07:59:43 51°13.827 2°52.816 245.5 14.3 242.6 10.4
2003-02-14 07:59:48 51°13.817 2°52.788 245.7 14.3 242.1 10.4
2003-02-14 07:59:54 51°13.806 2°52.755 244.7 14.3 242.1 10.4
2003-02-14 07:59:58 51°13.798 2°52.733 244.7 14.2 241 10.4
2003-02-14 08:00:03 51°13.79 2°52.704 245.5 14.2 242.9 10.4
2003-02-14 08:00:08 51°13.78 2°52.677 244.9 14.3 241.5 10.7
2003-02-14 08:00:13 51°13.772 2°52.649 246 14.3 242.9 10
2003-02-14 08:00:19 51°13.759 2°52.617 242.6 14.1 242.5 10.7
2003-02-14 08:00:23 51°13.753 2°52.593 246.5 14.3 242.9 10.5
2003-02-14 08:00:28 51°13.743 2°52.567 244 14.2 242.7 10.5
2003-02-14 08:00:34 51°13.732 2°52.533 243.8 14.1 241.7 10.5
2003-02-14 08:00:39 51°13.722 2°52.506 243.9 14.1 241.1 10.4
2003-02-14 08:00:44 51°13.713 2°52.478 244.9 14.3 242.1 10.5
2003-02-14 08:00:48 51°13.705 2°52.456 244.7 14.2 241.9 10.7
2003-02-14 08:00:54 51°13.694 2°52.422 245 14.2 241.8 10.6
2003-02-14 08:00:59 51°13.685 2°52.394 245.9 14.3 241.9 10.5
2003-02-14 08:01:03 51°13.678 2°52.372 245.3 14.4 242.6 10.2
2003-02-14 08:01:08 51°13.668 2°52.344 244.7 14.3 241.7 10.8
2003-02-14 08:01:14 51°13.658 2°52.31 246.7 14.3 241.7 10.4
2003-02-14 08:01:18 51°13.65 2°52.288 244.2 14.3 242 10.8
2003-02-14 08:01:23 51°13.641 2°52.26 246.1 14.3 242 10.9
2003-02-14 08:01:28 51°13.632 2°52.232 244.8 14.3 243 11
2003-02-14 08:01:34 51°13.621 2°52.198 245.3 14.3 241.4 10.8
2003-02-14 08:01:39 51°13.611 2°52.171 244.9 14.2 241.9 11
2003-02-14 08:01:43 51°13.605 2°52.148 245.4 14.3 242.8 10.8
2003-02-14 08:01:48 51°13.595 2°52.12 245.7 14.3 242.5 10.9
2003-02-14 08:01:53 51°13.587 2°52.092 246 14.3 242.9 10.5
2003-02-14 08:01:58 51°13.577 2°52.065 245 14.2 243.2 11
2003-02-14 08:02:03 51°13.569 2°52.036 246.1 14.2 242.6 10.8
2003-02-14 08:02:08 51°13.558 2°52.009 244 14.2 240.9 11
2003-02-14 08:02:13 51°13.55 2°51.98 246.5 14.3 242.1 10.9
2003-02-14 08:02:18 51°13.54 2°51.953 244.5 14.2 241.8 10.5
2003-02-14 08:02:23 51°13.531 2°51.924 245.3 14.3 242.6 11
2003-02-14 08:02:28 51°13.523 2°51.896 246.4 14.3 242.7 10.8
2003-02-14 08:02:33 51°13.513 2°51.869 245.2 14.3 242.3 10.6
2003-02-14 08:02:38 51°13.504 2°51.84 245.7 14.3 243 11
2003-02-14 08:02:43 51°13.495 2°51.813 245.7 14.3 242.2 10.8
2003-02-14 08:02:48 51°13.486 2°51.785 246 14.3 242.9 10.8
2003-02-14 08:02:54 51°13.475 2°51.752 244.7 14.2 242.9 11.1
2003-02-14 08:02:58 51°13.467 2°51.729 246 14.3 242.1 10.8
2003-02-14 08:03:03 51°13.458 2°51.701 244.5 14.2 242.8 11
2003-02-14 08:03:08 51°13.449 2°51.673 246 14.3 241.5 11
2003-02-14 08:03:13 51°13.44 2°51.645 245.3 14.3 241.5 10.9
2003-02-14 08:03:19 51°13.428 2°51.612 243.7 14.3 241.5 11.2
2003-02-14 08:03:24 51°13.419 2°51.585 245.3 14.2 242.3 10.9
2003-02-14 08:03:28 51°13.411 2°51.563 244.2 14.2 240.3 11
2003-02-14 08:03:34 51°13.401 2°51.529 245.7 14.2 241.5 11
2003-02-14 08:03:38 51°13.392 2°51.508 244.2 14.2 241 11
2003-02-14 08:03:43 51°13.384 2°51.479 245.3 14.2 241 11
2003-02-14 08:03:48 51°13.375 2°51.452 245.3 14.2 242 10.9
2003-02-14 08:03:54 51°13.363 2°51.418 245.4 14.2 242.3 11
2003-02-14 08:03:59 51°13.355 2°51.39 246 14.2 243 11.1
2003-02-14 08:04:03 51°13.347 2°51.369 244.6 14.2 241.5 11.2
2003-02-14 08:04:08 51°13.338 2°51.34 245.8 14.2 241.5 11
2003-02-14 08:04:14 51°13.326 2°51.308 244.6 14.2 241.2 11.1
2003-02-14 08:04:19 51°13.318 2°51.279 245.3 14.2 241.8 11
2003-02-14 08:04:23 51°13.31 2°51.258 245.4 14.2 242.8 11.1
2003-02-14 08:04:28 51°13.301 2°51.23 244.8 14.2 241.7 11.1
2003-02-14 08:04:33 51°13.292 2°51.202 245.3 14.2 242.3 11.2
2003-02-14 08:04:39 51°13.281 2°51.168 245.8 14.2 242.2 11.2
2003-02-14 08:04:43 51°13.274 2°51.146 245.9 14.2 242.7 11.3
2003-02-14 08:04:48 51°13.265 2°51.118 245.9 14.2 242.6 11.2
2003-02-14 08:04:54 51°13.253 2°51.085 245.3 14.2 242.3 11.3
2003-02-14 08:04:59 51°13.245 2°51.057 246.2 14.2 242.7 11.1
2003-02-14 08:05:03 51°13.237 2°51.035 245.1 14.2 242.3 11.3
2003-02-14 08:05:08 51°13.228 2°51.007 245.6 14.2 242.4 11.3
2003-02-14 08:05:13 51°13.219 2°50.979 245.3 14.2 242.9 11.4
2003-02-14 08:05:18 51°13.209 2°50.952 244.9 14.2 241.9 11.3
2003-02-14 08:05:24 51°13.198 2°50.918 245.2 14.2 242.1 11.3
2003-02-14 08:05:28 51°13.191 2°50.896 245.6 14.3 242.2 11.3
2003-02-14 08:05:34 51°13.18 2°50.862 245.5 14.2 242.6 11.3
2003-02-14 08:05:39 51°13.17 2°50.835 244.7 14.2 242.5 11.6
2003-02-14 08:05:43 51°13.164 2°50.812 246.5 14.3 243.1 11.5
2003-02-14 08:05:48 51°13.154 2°50.785 244.3 14.2 242.2 11.3
2003-02-14 08:05:54 51°13.143 2°50.752 243.8 14.1 241.7 11.5
2003-02-14 08:05:58 51°13.136 2°50.729 246.2 14.2 241.3 11.5
2003-02-14 08:06:03 51°13.127 2°50.702 245.5 14.2 243.2 11.5
2003-02-14 08:06:08 51°13.118 2°50.674 244.7 14.1 242.3 11.5
2003-02-14 08:06:13 51°13.108 2°50.646 244.3 14.1 241.7 11.5
2003-02-14 08:06:18 51°13.099 2°50.618 245.3 14.1 241.7 11.6
2003-02-14 08:06:23 51°13.09 2°50.591 245.3 14.2 242.2 11.5
2003-02-14 08:06:28 51°13.081 2°50.563 244.6 14.2 242.6 11.6
2003-02-14 08:06:34 51°13.069 2°50.53 244.6 14.2 241.3 11.7
2003-02-14 08:06:38 51°13.063 2°50.507 245.6 14.2 243 11.6
2003-02-14 08:06:43 51°13.053 2°50.481 243.9 14.1 241 11.6
2003-02-14 08:06:48 51°13.044 2°50.452 244.8 14.1 242.1 11.6
2003-02-14 08:06:53 51°13.034 2°50.425 244.6 14.1 241.9 11.7
2003-02-14 08:06:58 51°13.025 2°50.397 244.7 14.2 241.6 11.7
2003-02-14 08:07:03 51°13.016 2°50.37 244.9 14.2 241.6 11.8
2003-02-14 08:07:08 51°13.007 2°50.342 246.8 14.2 241.3 11.7
2003-02-14 08:07:14 51°12.996 2°50.31 244.7 14 243.5 11.7
2003-02-14 08:07:18 51°12.988 2°50.288 242.5 14.1 239.9 11.9
2003-02-14 08:07:23 51°12.979 2°50.26 245.3 14.1 242.1 11.7
2003-02-14 08:07:28 51°12.969 2°50.234 243.7 14.1 241.3 11.8
2003-02-14 08:07:34 51°12.958 2°50.201 244.1 14 241.4 11.8
2003-02-14 08:07:38 51°12.951 2°50.179 245.3 14.1 241.7 11.8
2003-02-14 08:07:43 51°12.942 2°50.151 246 14.1 242.8 11.8
2003-02-14 08:07:48 51°12.933 2°50.123 245.1 14.1 242.8 11.9
2003-02-14 08:07:54 51°12.922 2°50.09 245.9 14.1 242.2 11.9
2003-02-14 08:07:59 51°12.913 2°50.062 246.3 14.1 242.2 11.9
2003-02-14 08:08:03 51°12.906 2°50.04 245.5 14.1 242.7 11.8
2003-02-14 08:08:08 51°12.897 2°50.013 245.3 14.1 242.7 11.9
2003-02-14 08:08:14 51°12.887 2°49.979 246 14.1 243.1 11.9
2003-02-14 08:08:19 51°12.877 2°49.952 245 14.1 242 11.8
2003-02-14 08:08:23 51°12.871 2°49.929 246 14.1 243.2 11.9
2003-02-14 08:08:28 51°12.861 2°49.902 245.7 14.1 242.6 11.9
2003-02-14 08:08:33 51°12.852 2°49.874 245.5 14 242.5 11.9
2003-02-14 08:08:38 51°12.843 2°49.846 245.6 14.1 243 12
2003-02-14 08:08:44 51°12.832 2°49.814 244.3 14.1 241.3 12
2003-02-14 08:08:48 51°12.825 2°49.791 245.7 14.1 242.2 12.1
2003-02-14 08:08:54 51°12.814 2°49.758 245.3 14.1 242.1 12.1
2003-02-14 08:08:59 51°12.805 2°49.731 245.1 14.1 242.2 12
2003-02-14 08:09:04 51°12.796 2°49.703 245.1 14.1 241.8 12
2003-02-14 08:09:08 51°12.789 2°49.681 245.6 14.1 242.9 11.9
2003-02-14 08:09:14 51°12.778 2°49.648 244.8 14.1 242.3 12
2003-02-14 08:09:18 51°12.771 2°49.625 246 14.1 243.2 12
2003-02-14 08:09:23 51°12.762 2°49.598 245.3 14.1 242.5 12
2003-02-14 08:09:28 51°12.753 2°49.57 244.9 14.1 242.4 12
2003-02-14 08:09:34 51°12.742 2°49.537 245.1 14.1 242.2 12.1
2003-02-14 08:09:38 51°12.735 2°49.514 245.8 14.2 242.5 12.1
2003-02-14 08:09:44 51°12.724 2°49.481 245.5 14.2 242.5 12
2003-02-14 08:09:48 51°12.716 2°49.459 245.3 14.2 242.8 12.1
2003-02-14 08:09:54 51°12.706 2°49.425 245.6 14.2 242.7 12.2
2003-02-14 08:09:58 51°12.699 2°49.403 245.9 14.2 243 12.4
2003-02-14 08:10:03 51°12.69 2°49.375 246 14.2 243.3 12
2003-02-14 08:10:08 51°12.68 2°49.348 244.2 14.1 242.4 12.3
2003-02-14 08:10:14 51°12.671 2°49.313 246.7 14.2 242.5 12.3
2003-02-14 08:10:18 51°12.663 2°49.292 245.1 14.2 244.2 12.3
2003-02-14 08:10:23 51°12.654 2°49.264 244.6 14.1 242.3 12.3
2003-02-14 08:10:28 51°12.644 2°49.237 245.2 14.1 242.6 12.3
2003-02-14 08:10:34 51°12.634 2°49.203 246 14.2 243.5 12.2
2003-02-14 08:10:38 51°12.627 2°49.181 245.4 14.2 243 12.3
2003-02-14 08:10:43 51°12.618 2°49.153 245.4 14.1 242.8 12.3
2003-02-14 08:10:48 51°12.608 2°49.126 244.8 14.1 242 12.5
2003-02-14 08:10:54 51°12.598 2°49.092 245.6 14.1 242.5 12.5
2003-02-14 08:10:58 51°12.591 2°49.07 245.6 14.2 242.8 12.3
2003-02-14 08:11:03 51°12.582 2°49.042 245.6 14.1 243.3 12.4
2003-02-14 08:11:08 51°12.573 2°49.014 245.7 14.1 243.2 12.7
2003-02-14 08:11:14 51°12.563 2°48.98 246.3 14.1 244 12.4
2003-02-14 08:11:19 51°12.553 2°48.953 244.5 14.1 241.9 12.5
2003-02-14 08:11:23 51°12.547 2°48.93 246.2 14.1 243.5 12.5
2003-02-14 08:11:28 51°12.537 2°48.903 245.3 14.1 244 12.5
2003-02-14 08:11:34 51°12.527 2°48.87 245.6 14.1 243.3 12.3
2003-02-14 08:11:38 51°12.519 2°48.848 244.9 14.1 242.5 12.5
2003-02-14 08:11:44 51°12.509 2°48.814 246.2 14.1 243 12.5
2003-02-14 08:11:48 51°12.502 2°48.792 245.3 14.1 243.1 12.6
2003-02-14 08:11:53 51°12.493 2°48.764 245.2 14.1 242.4 12.4
2003-02-14 08:11:58 51°12.483 2°48.738 244.5 14 241.9 12.7
2003-02-14 08:12:03 51°12.475 2°48.709 245.7 14.1 242.7 12.8
2003-02-14 08:12:08 51°12.465 2°48.683 244.4 14.1 241.6 12.6
2003-02-14 08:12:14 51°12.455 2°48.649 245.2 14.1 241.5 12.6
2003-02-14 08:12:18 51°12.447 2°48.627 245.6 14.1 242.7 12.5
2003-02-14 08:12:23 51°12.439 2°48.599 245.5 14.1 242.9 12.6
2003-02-14 08:12:28 51°12.43 2°48.572 245.3 14.1 243.4 12.6
2003-02-14 08:12:33 51°12.42 2°48.544 245.4 14 242.2 12.7
2003-02-14 08:12:39 51°12.411 2°48.51 246.4 14.1 243.6 12.7
2003-02-14 08:12:43 51°12.403 2°48.489 244.7 14.1 242.4 12.6
2003-02-14 08:12:48 51°12.395 2°48.461 245.3 14.1 242.9 12.6
2003-02-14 08:12:54 51°12.384 2°48.427 245.1 14.1 242.8 13
2003-02-14 08:12:58 51°12.377 2°48.405 246.5 14.1 243.7 12.6
2003-02-14 08:13:03 51°12.368 2°48.378 244.6 14 242.7 12.7
2003-02-14 08:13:08 51°12.36 2°48.349 245.9 14.1 242.4 12.8
2003-02-14 08:13:14 51°12.349 2°48.316 245.7 14.1 243.6 12.7
2003-02-14 08:13:18 51°12.341 2°48.294 244.8 14.1 242.3 12.5
2003-02-14 08:13:24 51°12.331 2°48.261 245.3 14.1 242.3 12.7
2003-02-14 08:13:28 51°12.323 2°48.239 244.5 14 242.3 12.8
2003-02-14 08:13:33 51°12.315 2°48.211 245.3 14 242.4 12.9
2003-02-14 08:13:38 51°12.306 2°48.184 244.9 14 242.7 12.7
2003-02-14 08:13:43 51°12.297 2°48.157 245.4 14 242.1 13
2003-02-14 08:13:48 51°12.289 2°48.129 246 14 244.1 12.8
2003-02-14 08:13:54 51°12.276 2°48.097 243.8 14 241.2 12.9
2003-02-14 08:13:58 51°12.27 2°48.074 246 14 243.8 12.9
2003-02-14 08:14:03 51°12.26 2°48.047 245.2 14 242.3 12.9
2003-02-14 08:14:08 51°12.252 2°48.019 244.7 14 242.9 13
2003-02-14 08:14:13 51°12.243 2°47.992 245.6 14 242.1 13
2003-02-14 08:14:18 51°12.234 2°47.964 246.3 14 243.8 13
2003-02-14 08:14:23 51°12.225 2°47.937 244.9 14 242.7 13
2003-02-14 08:14:28 51°12.216 2°47.909 245.6 14 242.8 12.9
2003-02-14 08:14:34 51°12.205 2°47.877 244.5 13.9 242.5 12.9
2003-02-14 08:14:38 51°12.198 2°47.855 245.1 14 242.6 13.1
2003-02-14 08:14:44 51°12.188 2°47.822 245.8 14 242.9 12.9
2003-02-14 08:14:48 51°12.181 2°47.8 245.3 14 242.7 13
2003-02-14 08:14:54 51°12.171 2°47.766 246.4 14 243 12.9
2003-02-14 08:14:58 51°12.163 2°47.745 244.8 14 243.1 13
2003-02-14 08:15:03 51°12.155 2°47.718 245.2 13.9 243 13
2003-02-14 08:15:08 51°12.145 2°47.691 245.1 13.9 241.9 12.9
2003-02-14 08:15:14 51°12.135 2°47.658 245.5 13.9 243.7 13.2
2003-02-14 08:15:19 51°12.126 2°47.631 245.1 13.9 241.7 13.1
2003-02-14 08:15:23 51°12.119 2°47.609 245.3 13.9 243.1 12.9
2003-02-14 08:15:28 51°12.109 2°47.582 244.4 13.9 241.5 13.1
2003-02-14 08:15:34 51°12.099 2°47.549 246 13.9 242.6 13.1
2003-02-14 08:15:38 51°12.092 2°47.528 244.9 13.9 243.3 13
2003-02-14 08:15:44 51°12.081 2°47.495 244.5 13.9 242 13.1
2003-02-14 08:15:48 51°12.074 2°47.473 245.1 13.9 242.2 12.8
2003-02-14 08:15:54 51°12.063 2°47.441 244.6 13.9 241.8 13.2
2003-02-14 08:15:59 51°12.055 2°47.413 246 13.9 241.9 13.1
2003-02-14 08:16:04 51°12.045 2°47.387 244.3 13.9 241.9 13.2
2003-02-14 08:16:09 51°12.037 2°47.359 245.6 13.9 242.7 13
2003-02-14 08:16:14 51°12.027 2°47.332 244.9 13.9 242.3 13.2
2003-02-14 08:16:18 51°12.021 2°47.31 246 14 243.2 13.2
2003-02-14 08:16:24 51°12.01 2°47.278 245.7 13.9 242.9 13
2003-02-14 08:16:28 51°12.003 2°47.256 244.9 13.8 242.8 13.1
2003-02-14 08:16:34 51°11.992 2°47.223 244.8 13.9 242.1 13.3
2003-02-14 08:16:39 51°11.983 2°47.196 244.7 14 241.8 13.1
2003-02-14 08:16:44 51°11.973 2°47.169 243.9 13.9 241.6 13.1
2003-02-14 08:16:48 51°11.966 2°47.147 245.6 14 242 13.3
2003-02-14 08:16:54 51°11.956 2°47.114 246.2 14 242.9 12.8
2003-02-14 08:16:58 51°11.948 2°47.093 244.9 13.9 241.8 13.1
2003-02-14 08:17:03 51°11.941 2°47.064 248.2 13.9 244.9 12.9
2003-02-14 08:17:08 51°11.932 2°47.037 247.2 13.8 245.1 13
2003-02-14 08:17:14 51°11.924 2°47.003 249.2 13.9 245.3 13
2003-02-14 08:17:18 51°11.917 2°46.981 248.9 13.9 246.1 13.3
2003-02-14 08:17:24 51°11.908 2°46.947 250.2 13.9 246.3 13.1
2003-02-14 08:17:28 51°11.902 2°46.925 249.4 13.9 247.8 13.2
2003-02-14 08:17:33 51°11.894 2°46.896 250 13.9 246.1 13.2
2003-02-14 08:17:38 51°11.887 2°46.868 250.2 13.9 248 13.1
2003-02-14 08:17:44 51°11.878 2°46.833 250.9 14 246.8 13.2
2003-02-14 08:17:48 51°11.872 2°46.811 250.8 13.9 248.9 13.2
2003-02-14 08:17:54 51°11.863 2°46.778 249.1 13.8 247.3 13.3
2003-02-14 08:17:58 51°11.858 2°46.754 251.8 13.9 248.2 13.2
2003-02-14 08:18:04 51°11.848 2°46.721 250.7 13.9 248 13.2
2003-02-14 08:18:08 51°11.843 2°46.698 250.5 13.9 247.6 13.3
2003-02-14 08:18:14 51°11.834 2°46.664 251.1 13.9 248.1 13.5
2003-02-14 08:18:19 51°11.827 2°46.635 251.1 13.9 247.9 13.2
2003-02-14 08:18:23 51°11.82 2°46.613 250 13.8 247.5 13.4
2003-02-14 08:18:28 51°11.813 2°46.584 250.9 13.9 247.4 13.6
2003-02-14 08:18:34 51°11.805 2°46.551 251.2 13.8 248 13.3
2003-02-14 08:18:38 51°11.798 2°46.528 249.7 13.8 247.8 13.5
2003-02-14 08:18:43 51°11.792 2°46.5 251.8 13.8 248 13.4
2003-02-14 08:18:48 51°11.784 2°46.473 250 13.7 247.9 13.5
2003-02-14 08:18:53 51°11.777 2°46.443 251.1 13.8 246.8 13.6
2003-02-14 08:18:59 51°11.768 2°46.41 251.1 13.9 248 13.5
2003-02-14 08:19:03 51°11.763 2°46.387 250.4 13.8 248 13.4
2003-02-14 08:19:08 51°11.755 2°46.359 250.2 13.8 247.2 13.4
2003-02-14 08:19:14 51°11.746 2°46.324 251.3 14 248.2 13.7
2003-02-14 08:19:18 51°11.741 2°46.301 250.9 13.9 248.4 13.5
2003-02-14 08:19:24 51°11.731 2°46.268 249.6 13.9 247.1 13.5
2003-02-14 08:19:28 51°11.726 2°46.245 251.1 13.9 247.4 13.5
2003-02-14 08:19:34 51°11.717 2°46.211 250 13.9 248.4 13.5
2003-02-14 08:19:38 51°11.711 2°46.188 250.9 14 247.5 13.4
2003-02-14 08:19:43 51°11.704 2°46.159 250.4 14 248.8 13.5
2003-02-14 08:19:48 51°11.697 2°46.131 250.7 13.9 248 13.2
2003-02-14 08:19:54 51°11.688 2°46.096 250.7 13.9 247.9 13.3
2003-02-14 08:19:58 51°11.683 2°46.073 250.4 14 248.5 13.5
2003-02-14 08:20:04 51°11.674 2°46.039 251 14 247.7 13.3
2003-02-14 08:20:08 51°11.668 2°46.016 250 13.9 247.7 13.4
2003-02-14 08:20:14 51°11.659 2°45.982 249.7 13.9 247 13.5
2003-02-14 08:20:19 51°11.652 2°45.953 250.7 14 247.2 13.3
2003-02-14 08:20:24 51°11.643 2°45.925 249.3 14 246.8 13.5
2003-02-14 08:20:28 51°11.638 2°45.902 251.7 14 247.5 13.3
2003-02-14 08:20:34 51°11.628 2°45.869 249.5 13.9 247.2 13.3
2003-02-14 08:20:38 51°11.623 2°45.846 250 13.9 246.6 13.5
2003-02-14 08:20:44 51°11.614 2°45.812 250.6 13.9 247.8 13.5
2003-02-14 08:20:48 51°11.608 2°45.789 250.2 13.9 247.2 13.5
2003-02-14 08:20:54 51°11.598 2°45.755 249.6 13.9 246.9 13.5
2003-02-14 08:20:58 51°11.593 2°45.732 250.4 13.9 247.4 13.3
2003-02-14 08:21:04 51°11.583 2°45.699 249.7 13.9 247.4 13.5
2003-02-14 08:21:08 51°11.579 2°45.675 251.4 13.9 246.9 13.3
2003-02-14 08:21:14 51°11.568 2°45.642 249.2 13.9 247.4 13.4
2003-02-14 08:21:18 51°11.564 2°45.618 250.6 13.9 248.2 13.5
2003-02-14 08:21:24 51°11.554 2°45.585 250.9 13.9 246.9 13.1
2003-02-14 08:21:28 51°11.549 2°45.563 250.1 13.8 248.2 13.3
2003-02-14 08:21:34 51°11.539 2°45.529 250.2 13.9 246.6 13.5
2003-02-14 08:21:39 51°11.533 2°45.5 251.4 13.9 247.6 13.2
2003-02-14 08:21:44 51°11.524 2°45.472 248.9 13.9 246.4 13.4
2003-02-14 08:21:48 51°11.52 2°45.449 251.7 13.9 248.3 13.2
2003-02-14 08:21:54 51°11.51 2°45.415 250.4 13.9 248.9 13
2003-02-14 08:21:58 51°11.505 2°45.392 251 13.9 248.6 13.5
2003-02-14 08:22:04 51°11.496 2°45.359 250.6 13.8 247.3 13
2003-02-14 08:22:08 51°11.489 2°45.337 248.4 13.7 246.9 13.4
2003-02-14 08:22:14 51°11.481 2°45.302 251.4 13.9 246.6 13.4
2003-02-14 08:22:19 51°11.472 2°45.275 249.6 13.9 248 13.3
2003-02-14 08:22:24 51°11.465 2°45.247 248.4 13.7 245.4 13.2
2003-02-14 08:22:28 51°11.458 2°45.225 248.9 13.7 246 13.1
2003-02-14 08:22:34 51°11.449 2°45.192 248.2 13.7 245.4 13.1
2003-02-14 08:22:38 51°11.442 2°45.171 247.5 13.7 244.8 13.1
2003-02-14 08:22:44 51°11.432 2°45.138 246.8 13.7 244.5 13.3
2003-02-14 08:22:48 51°11.425 2°45.116 246.6 13.7 243.6 13.4
2003-02-14 08:22:54 51°11.416 2°45.083 247.5 13.8 243.8 13.2
2003-02-14 08:22:58 51°11.409 2°45.062 246.4 13.7 244.3 13.2
2003-02-14 08:23:03 51°11.401 2°45.034 246.2 13.7 244 13.1
2003-02-14 08:23:08 51°11.392 2°45.007 246.5 13.8 243.7 13.3
2003-02-14 08:23:14 51°11.383 2°44.973 247.5 13.8 244.6 13.3
2003-02-14 08:23:18 51°11.375 2°44.953 246 13.7 243.6 13.1
2003-02-14 08:23:23 51°11.367 2°44.925 246 13.7 243.9 13.1
2003-02-14 08:23:28 51°11.359 2°44.897 246.9 13.8 243.9 13.3
2003-02-14 08:23:34 51°11.349 2°44.864 247.5 13.8 244.9 13
2003-02-14 08:23:38 51°11.342 2°44.843 246 13.8 243.5 13.2
2003-02-14 08:23:44 51°11.333 2°44.81 248.5 13.7 244.6 13.1
2003-02-14 08:23:48 51°11.325 2°44.789 247.3 13.7 244.6 13.1
2003-02-14 08:23:54 51°11.316 2°44.755 247.6 13.8 245.1 13.1
2003-02-14 08:23:59 51°11.308 2°44.728 248 13.8 245.2 13.1
2003-02-14 08:24:03 51°11.301 2°44.707 246.4 13.6 244.5 13.1
2003-02-14 08:24:08 51°11.293 2°44.68 247.5 13.6 243.4 13.1
2003-02-14 08:24:13 51°11.285 2°44.652 247.9 13.8 245.6 13.1
2003-02-14 08:24:18 51°11.277 2°44.625 246.9 13.8 244.8 13.1
2003-02-14 08:24:23 51°11.269 2°44.597 247.2 13.7 244.5 13
2003-02-14 08:24:28 51°11.26 2°44.57 246.7 13.7 244.4 13
2003-02-14 08:24:34 51°11.25 2°44.537 247.3 13.8 244.9 12.9
2003-02-14 08:24:38 51°11.243 2°44.515 246.9 13.8 244.1 13
2003-02-14 08:24:44 51°11.234 2°44.482 247 13.7 245 13
2003-02-14 08:24:48 51°11.227 2°44.461 245.8 13.7 243.5 13
2003-02-14 08:24:54 51°11.217 2°44.427 246.6 13.8 244 12.9
2003-02-14 08:24:58 51°11.21 2°44.405 247.2 13.9 244.4 13
2003-02-14 08:25:04 51°11.201 2°44.372 248.5 13.9 245 13
2003-02-14 08:25:08 51°11.194 2°44.35 247.4 13.7 245.1 13
2003-02-14 08:25:14 51°11.184 2°44.318 246.4 13.7 243.7 13
2003-02-14 08:25:18 51°11.178 2°44.295 247.6 13.8 245.1 12.9
2003-02-14 08:25:24 51°11.168 2°44.262 246.7 13.8 244.1 13
2003-02-14 08:25:28 51°11.162 2°44.24 248.3 13.8 244.6 12.9
2003-02-14 08:25:34 51°11.151 2°44.208 246.8 13.7 244.5 13
2003-02-14 08:25:38 51°11.145 2°44.186 246.1 13.7 244 12.9
2003-02-14 08:25:43 51°11.136 2°44.159 246.7 13.7 244 12.9
2003-02-14 08:25:48 51°11.129 2°44.131 247.5 13.8 244.2 12.9
2003-02-14 08:25:54 51°11.118 2°44.098 247.5 13.8 244.6 12.9
2003-02-14 08:25:58 51°11.113 2°44.076 248.1 13.8 244.5 12.8
2003-02-14 08:26:03 51°11.104 2°44.049 247.4 13.7 245.2 12.8
2003-02-14 08:26:08 51°11.097 2°44.021 248.1 13.7 244.8 12.6
2003-02-14 08:26:13 51°11.088 2°43.994 247.1 13.7 246.1 13
2003-02-14 08:26:18 51°11.081 2°43.965 249.5 13.9 246 12.8
2003-02-14 08:26:23 51°11.072 2°43.939 246.7 13.7 244.8 12.9
2003-02-14 08:26:28 51°11.065 2°43.911 247.6 13.6 245.1 12.8
2003-02-14 08:26:34 51°11.054 2°43.879 247.8 13.6 245.5 12.9
2003-02-14 08:26:38 51°11.049 2°43.857 247.3 13.6 245.1 12.7
2003-02-14 08:26:44 51°11.038 2°43.825 246.5 13.6 243.5 12.8
2003-02-14 08:26:48 51°11.033 2°43.802 248.2 13.6 245.7 12.9
2003-02-14 08:26:54 51°11.022 2°43.77 247.8 13.6 244.9 12.7
2003-02-14 08:26:59 51°11.014 2°43.744 246.5 13.5 244.5 12.8
2003-02-14 08:27:03 51°11.008 2°43.721 247.4 13.6 243.9 12.9
2003-02-14 08:27:08 51°11 2°43.694 247.9 13.6 245.1 12.6
2003-02-14 08:27:14 51°10.99 2°43.662 246.8 13.6 244.3 12.7
2003-02-14 08:27:18 51°10.984 2°43.64 247.5 13.5 245 12.7
2003-02-14 08:27:24 51°10.974 2°43.608 246.7 13.5 243.8 12.6
2003-02-14 08:27:28 51°10.967 2°43.587 246.6 13.6 244.1 12.7
2003-02-14 08:27:34 51°10.957 2°43.554 247 13.6 243.2 12.5
2003-02-14 08:27:39 51°10.949 2°43.527 247.2 13.6 245 12.7
2003-02-14 08:27:44 51°10.941 2°43.5 246.7 13.5 243.7 12.7
2003-02-14 08:27:48 51°10.935 2°43.479 247.3 13.5 244.8 12.4
2003-02-14 08:27:54 51°10.925 2°43.446 247.4 13.6 244.3 12.5
2003-02-14 08:27:58 51°10.919 2°43.424 248 13.7 245.6 12.6
2003-02-14 08:28:04 51°10.909 2°43.391 247.3 13.7 244.3 12.5
2003-02-14 08:28:08 51°10.903 2°43.369 248 13.7 244.3 12.6
2003-02-14 08:28:14 51°10.892 2°43.338 246.6 13.5 244.2 12.5
2003-02-14 08:28:18 51°10.885 2°43.316 246.1 13.5 244 12.6
2003-02-14 08:28:23 51°10.878 2°43.288 247.6 13.7 244.6 12.4
2003-02-14 08:28:28 51°10.869 2°43.262 246.7 13.7 244.5 12.5
2003-02-14 08:28:34 51°10.86 2°43.228 247.4 13.6 244.6 12.4
2003-02-14 08:28:39 51°10.851 2°43.202 247 13.7 243.8 12.5
2003-02-14 08:28:44 51°10.843 2°43.174 247.5 13.7 244.8 12.4
2003-02-14 08:28:48 51°10.836 2°43.153 247.6 13.7 244.5 12.4
2003-02-14 08:28:54 51°10.826 2°43.12 246.8 13.7 244.6 12.4
2003-02-14 08:28:59 51°10.818 2°43.093 247 13.7 243.5 12.3
2003-02-14 08:29:04 51°10.809 2°43.067 246.4 13.6 244 12.4
2003-02-14 08:29:08 51°10.803 2°43.045 246.5 13.6 243.4 12.4
2003-02-14 08:29:14 51°10.793 2°43.012 247.1 13.6 244.1 12.4
2003-02-14 08:29:18 51°10.787 2°42.99 246.9 13.6 244.2 12.4
2003-02-14 08:29:24 51°10.777 2°42.958 247.7 13.7 243.8 12.2
2003-02-14 08:29:28 51°10.771 2°42.936 248.1 13.7 245.6 12.4
2003-02-14 08:29:33 51°10.762 2°42.909 247.4 13.6 244.5 12.3
2003-02-14 08:29:38 51°10.754 2°42.882 247.5 13.6 244.7 12.2
2003-02-14 08:29:43 51°10.746 2°42.854 246.9 13.6 244.3 12.3
2003-02-14 08:29:48 51°10.737 2°42.827 248 13.7 243.7 12.2
2003-02-14 08:29:54 51°10.727 2°42.795 246.7 13.6 244.8 12.2
2003-02-14 08:29:58 51°10.72 2°42.774 245.4 13.6 242.6 12.3
2003-02-14 08:30:04 51°10.711 2°42.74 248.2 13.7 244.3 12.3
2003-02-14 08:30:08 51°10.705 2°42.719 247.6 13.7 245 12.3
2003-02-14 08:30:13 51°10.697 2°42.692 247.6 13.6 244.8 12.1
2003-02-14 08:30:18 51°10.688 2°42.665 247.3 13.6 244.5 12.2
2003-02-14 08:30:24 51°10.679 2°42.632 247.8 13.6 244.1 12.1
2003-02-14 08:30:28 51°10.672 2°42.61 247.8 13.7 245.3 12.3
2003-02-14 08:30:34 51°10.662 2°42.578 247.4 13.5 244.5 12.2
2003-02-14 08:30:38 51°10.655 2°42.557 246.4 13.5 243.6 12.2
2003-02-14 08:30:43 51°10.647 2°42.53 247 13.5 243.2 11.9
2003-02-14 08:30:48 51°10.639 2°42.503 246.4 13.6 244.4 12.1
2003-02-14 08:30:54 51°10.629 2°42.47 247.4 13.6 243.5 12
2003-02-14 08:30:58 51°10.622 2°42.449 247.1 13.6 243.8 12
2003-02-14 08:31:04 51°10.613 2°42.416 246.7 13.6 243.9 11.9
2003-02-14 08:31:08 51°10.606 2°42.395 247.2 13.6 243.9 12.3
2003-02-14 08:31:14 51°10.597 2°42.362 248.1 13.6 244.8 11.9
2003-02-14 08:31:18 51°10.589 2°42.341 247 13.6 243.7 12.1
2003-02-14 08:31:23 51°10.582 2°42.312 248.9 13.7 244.9 12.1
2003-02-14 08:31:28 51°10.573 2°42.287 247 13.5 244.2 11.9
2003-02-14 08:31:33 51°10.565 2°42.26 246.1 13.5 243.2 12
2003-02-14 08:31:38 51°10.557 2°42.233 248.5 13.6 244.7 12
2003-02-14 08:31:43 51°10.549 2°42.206 247.7 13.5 244.9 11.9
2003-02-14 08:31:48 51°10.541 2°42.18 247 13.4 243.8 12
2003-02-14 08:31:54 51°10.531 2°42.147 248.1 13.5 244 11.8
2003-02-14 08:31:58 51°10.525 2°42.126 246.9 13.4 244.3 11.8
2003-02-14 08:32:03 51°10.516 2°42.099 246.7 13.5 243.3 11.5
2003-02-14 08:32:08 51°10.508 2°42.073 246.4 13.5 244.1 11.9
2003-02-14 08:32:14 51°10.498 2°42.04 247.4 13.5 243.5 12
2003-02-14 08:32:19 51°10.489 2°42.014 247 13.6 243.9 11.8
2003-02-14 08:32:24 51°10.482 2°41.986 247.8 13.5 245 11.5
2003-02-14 08:32:28 51°10.475 2°41.965 247.7 13.5 244.3 11.7
2003-02-14 08:32:34 51°10.465 2°41.933 246.6 13.5 244.2 11.8
2003-02-14 08:32:39 51°10.457 2°41.906 246.9 13.5 243.3 11.8
2003-02-14 08:32:44 51°10.449 2°41.88 247.4 13.5 244.4 11.7
2003-02-14 08:32:48 51°10.442 2°41.858 247.1 13.5 243.4 11.7
2003-02-14 08:32:54 51°10.432 2°41.826 246.9 13.5 244.3 11.8
2003-02-14 08:32:58 51°10.426 2°41.804 247.8 13.6 243.2 11.7
2003-02-14 08:33:04 51°10.416 2°41.772 247.7 13.6 245.8 11.7
2003-02-14 08:33:08 51°10.409 2°41.751 247.3 13.6 243.5 11.8
2003-02-14 08:33:14 51°10.4 2°41.719 247.4 13.4 245.2 11.7
2003-02-14 08:33:18 51°10.393 2°41.697 247.2 13.4 242.9 11.8
2003-02-14 08:33:23 51°10.386 2°41.669 248.9 13.5 246.2 11.9
2003-02-14 08:33:28 51°10.377 2°41.644 247.5 13.5 243.5 11.7
2003-02-14 08:33:34 51°10.368 2°41.612 247.2 13.4 245.5 11.7
2003-02-14 08:33:38 51°10.36 2°41.591 246.4 13.4 242.4 11.7
2003-02-14 08:33:43 51°10.354 2°41.563 248.5 13.4 245.3 11.6
2003-02-14 08:33:48 51°10.344 2°41.537 246.7 13.4 243.6 11.6
2003-02-14 08:33:54 51°10.335 2°41.505 247.6 13.4 244.3 11.5
2003-02-14 08:33:59 51°10.327 2°41.479 247 13.4 243.8 11.4
2003-02-14 08:34:03 51°10.321 2°41.457 248.1 13.4 244.9 11.8
2003-02-14 08:34:08 51°10.313 2°41.43 248.8 13.4 244.5 11.6
2003-02-14 08:34:13 51°10.305 2°41.404 247.8 13.3 244.8 11.6
2003-02-14 08:34:19 51°10.295 2°41.372 247.6 13.3 243.7 11.7
2003-02-14 08:34:24 51°10.287 2°41.346 247.9 13.3 245.3 11.5
2003-02-14 08:34:28 51°10.28 2°41.325 246 13.3 242.4 11.7
2003-02-14 08:34:34 51°10.271 2°41.293 247.7 13.3 242.4 11.5
2003-02-14 08:34:38 51°10.263 2°41.273 246 13.3 242.4 11.5
2003-02-14 08:34:43 51°10.256 2°41.246 246.2 13.2 243.5 11.6
2003-02-14 08:34:48 51°10.247 2°41.22 247.2 13.2 242.1 11.4
2003-02-14 08:34:54 51°10.237 2°41.188 247.2 13.4 244.5 11.5
2003-02-14 08:34:59 51°10.23 2°41.161 247.4 13.4 243.7 11.6
2003-02-14 08:35:04 51°10.221 2°41.135 247.5 13.4 243.9 11.6
2003-02-14 08:35:08 51°10.215 2°41.114 247.1 13.3 243.8 11.3
2003-02-14 08:35:14 51°10.205 2°41.082 248.1 13.4 243.5 11.6
2003-02-14 08:35:18 51°10.199 2°41.06 248.2 13.4 245 11.5
2003-02-14 08:35:23 51°10.19 2°41.035 247.5 13.4 244.7 11.6
2003-02-14 08:35:28 51°10.183 2°41.008 247.8 13.3 244.3 11.5
2003-02-14 08:35:34 51°10.173 2°40.977 247.5 13.3 243.5 11.5
2003-02-14 08:35:39 51°10.165 2°40.95 248.6 13.3 243.8 11.6
2003-02-14 08:35:43 51°10.159 2°40.929 248.8 13.3 244.6 11.5
2003-02-14 08:35:48 51°10.151 2°40.902 249.1 13.3 245.3 11.6
2003-02-14 08:35:53 51°10.143 2°40.876 248.3 13.3 244.6 11.7
2003-02-14 08:35:59 51°10.134 2°40.844 248.5 13.3 244.3 11.5
2003-02-14 08:36:04 51°10.125 2°40.818 247.5 13.3 244 11.4
2003-02-14 08:36:08 51°10.119 2°40.796 249.1 13.3 245.1 11.7
2003-02-14 08:36:14 51°10.11 2°40.765 249.3 13.3 245.3 11.4
2003-02-14 08:36:19 51°10.101 2°40.739 247 13.2 244 11.6
2003-02-14 08:36:24 51°10.094 2°40.712 249.1 13.3 244.5 11.6
2003-02-14 08:36:28 51°10.087 2°40.691 248.2 13.3 245 11.7
2003-02-14 08:36:34 51°10.078 2°40.659 248.7 13.3 245.1 11.4
2003-02-14 08:36:38 51°10.071 2°40.638 248.1 13.3 244.2 11.6
2003-02-14 08:36:44 51°10.062 2°40.606 249 13.4 244.5 11.6
2003-02-14 08:36:48 51°10.055 2°40.585 247.7 13.3 244.8 11.6
2003-02-14 08:36:54 51°10.046 2°40.553 247.9 13.3 243.9 11.6
2003-02-14 08:36:58 51°10.04 2°40.532 248.9 13.3 244.9 11.7
2003-02-14 08:37:04 51°10.03 2°40.5 248.2 13.3 244.6 11.6
2003-02-14 08:37:08 51°10.024 2°40.478 248.8 13.4 244.9 11.6
2003-02-14 08:37:14 51°10.015 2°40.446 249 13.4 245.3 11.5
2003-02-14 08:37:18 51°10.008 2°40.425 248.4 13.3 244.9 11.6
2003-02-14 08:37:23 51°10.001 2°40.398 248.7 13.3 245.2 11.6
2003-02-14 08:37:28 51°9.992 2°40.372 247.7 13.4 244.3 11.6
2003-02-14 08:37:34 51°9.983 2°40.339 248.2 13.4 244.5 11.6
2003-02-14 08:37:38 51°9.977 2°40.318 248.8 13.5 244.9 11.4
2003-02-14 08:37:43 51°9.969 2°40.291 248.2 13.5 244.7 11.7
2003-02-14 08:37:48 51°9.961 2°40.264 249 13.5 244.7 11.5
2003-02-14 08:37:53 51°9.952 2°40.238 246.9 13.4 245 11.7
2003-02-14 08:37:58 51°9.945 2°40.21 248.9 13.5 245.2 11.6
2003-02-14 08:38:03 51°9.936 2°40.184 247.3 13.4 244.6 11.6
2003-02-14 08:38:08 51°9.929 2°40.157 248.7 13.5 244.7 11.6
2003-02-14 08:38:14 51°9.919 2°40.125 248.4 13.5 245.2 11.6
2003-02-14 08:38:18 51°9.913 2°40.103 248 13.5 244.7 11.6
2003-02-14 08:38:24 51°9.903 2°40.071 247.4 13.4 243.8 11.6
2003-02-14 08:38:28 51°9.896 2°40.05 247.5 13.4 243.8 11.7
2003-02-14 08:38:34 51°9.886 2°40.017 248 13.5 244.3 11.5
2003-02-14 08:38:38 51°9.88 2°39.996 248.2 13.6 243.9 11.6
2003-02-14 08:38:44 51°9.87 2°39.963 248.7 13.6 245.4 11.7
2003-02-14 08:38:48 51°9.864 2°39.942 248.7 13.6 243.8 11.5
2003-02-14 08:38:54 51°9.855 2°39.909 248.9 13.5 246 11.6
2003-02-14 08:38:58 51°9.848 2°39.887 249 13.6 245 11.7
2003-02-14 08:39:04 51°9.839 2°39.855 249.1 13.6 245.6 11.5
2003-02-14 08:39:08 51°9.832 2°39.833 248 13.6 244.7 11.5
2003-02-14 08:39:14 51°9.823 2°39.8 250.1 13.6 245.9 11.7
2003-02-14 08:39:19 51°9.816 2°39.773 249.2 13.6 246 11.5
2003-02-14 08:39:24 51°9.808 2°39.746 248.9 13.6 245.4 11.7
2003-02-14 08:39:28 51°9.802 2°39.724 249.9 13.6 245.6 11.4
2003-02-14 08:39:33 51°9.793 2°39.697 247.9 13.5 246 11.7
2003-02-14 08:39:39 51°9.785 2°39.664 249.1 13.5 245.2 11.6
2003-02-14 08:39:43 51°9.777 2°39.643 248.5 13.5 244.9 11.6
2003-02-14 08:39:48 51°9.77 2°39.616 248 13.5 244.9 11.6
2003-02-14 08:39:54 51°9.76 2°39.584 248 13.5 244.5 11.7
2003-02-14 08:39:58 51°9.754 2°39.562 249.5 13.5 245.3 11.6
2003-02-14 08:40:04 51°9.745 2°39.53 248.6 13.5 245.4 11.5
2003-02-14 08:40:08 51°9.739 2°39.507 249.1 13.5 245.9 11.7
2003-02-14 08:40:14 51°9.729 2°39.475 249.7 13.6 245.4 11.7
2003-02-14 08:40:18 51°9.723 2°39.453 249 13.5 246 11.6
2003-02-14 08:40:24 51°9.713 2°39.421 247.5 13.5 244.5 11.5
2003-02-14 08:40:28 51°9.707 2°39.399 248.9 13.6 244.5 11.7
2003-02-14 08:40:34 51°9.697 2°39.367 248.2 13.6 245.4 11.6
2003-02-14 08:40:38 51°9.69 2°39.346 247.7 13.5 244.8 11.6
2003-02-14 08:40:44 51°9.681 2°39.313 248.8 13.6 244.9 11.8
2003-02-14 08:40:48 51°9.676 2°39.291 249 13.6 245.7 11.8
2003-02-14 08:40:54 51°9.666 2°39.259 247.5 13.4 244.5 11.7
2003-02-14 08:40:58 51°9.66 2°39.237 248.2 13.5 245.3 11.7
2003-02-14 08:41:03 51°9.652 2°39.21 248.7 13.5 245.1 11.6
2003-02-14 08:41:08 51°9.644 2°39.183 248.4 13.6 245.9 11.7
2003-02-14 08:41:14 51°9.636 2°39.15 249.5 13.6 245.3 11.8
2003-02-14 08:41:19 51°9.627 2°39.124 247.9 13.5 245 11.7
2003-02-14 08:41:23 51°9.621 2°39.102 248.1 13.4 245.1 11.7
2003-02-14 08:41:28 51°9.613 2°39.074 248.8 13.5 245.1 11.8
2003-02-14 08:41:34 51°9.604 2°39.042 248.9 13.6 245.6 11.6
2003-02-14 08:41:39 51°9.595 2°39.015 248.1 13.5 245.1 11.8
2003-02-14 08:41:43 51°9.59 2°38.993 249.3 13.5 246.3 11.9
2003-02-14 08:41:48 51°9.581 2°38.967 248.2 13.5 245.1 11.8
2003-02-14 08:41:54 51°9.572 2°38.934 247.5 13.5 245.2 12
2003-02-14 08:41:59 51°9.564 2°38.907 248.2 13.5 244.4 11.8
2003-02-14 08:42:04 51°9.556 2°38.88 247.8 13.5 245 11.8
2003-02-14 08:42:08 51°9.549 2°38.859 247.8 13.5 244.3 11.8
2003-02-14 08:42:14 51°9.54 2°38.826 249.2 13.5 245.5 11.7
2003-02-14 08:42:18 51°9.533 2°38.805 247.3 13.5 244.2 11.8
2003-02-14 08:42:24 51°9.525 2°38.772 249.2 13.5 245.3 11.8
2003-02-14 08:42:28 51°9.518 2°38.751 247.7 13.5 245.3 11.9
2003-02-14 08:42:34 51°9.509 2°38.717 248.9 13.6 244.4 11.9
2003-02-14 08:42:38 51°9.503 2°38.696 247.9 13.5 246.2 11.8
2003-02-14 08:42:44 51°9.493 2°38.663 247.7 13.5 244.1 11.8
2003-02-14 08:42:48 51°9.487 2°38.641 248.9 13.6 246.2 11.8
2003-02-14 08:42:54 51°9.477 2°38.609 248 13.6 244.7 11.8
2003-02-14 08:42:59 51°9.469 2°38.582 248.7 13.5 245.9 11.8
2003-02-14 08:43:04 51°9.461 2°38.555 247.3 13.5 243.9 12
2003-02-14 08:43:08 51°9.456 2°38.533 249.2 13.5 245 11.9
2003-02-14 08:43:14 51°9.445 2°38.502 247.2 13.4 244 11.8
2003-02-14 08:43:18 51°9.439 2°38.479 248.7 13.5 245.7 11.9
2003-02-14 08:43:23 51°9.43 2°38.453 248 13.5 244.6 11.7
2003-02-14 08:43:28 51°9.423 2°38.426 248.5 13.5 245.3 11.9
2003-02-14 08:43:34 51°9.414 2°38.394 248.2 13.5 245.3 11.8
2003-02-14 08:43:38 51°9.407 2°38.372 247.9 13.4 244.8 12
2003-02-14 08:43:44 51°9.399 2°38.34 248.8 13.5 245.9 11.8
2003-02-14 08:43:48 51°9.391 2°38.319 247.7 13.4 244.6 12
2003-02-14 08:43:54 51°9.383 2°38.286 248.9 13.4 244.8 12
2003-02-14 08:43:58 51°9.376 2°38.265 248.5 13.3 244.6 11.9
2003-02-14 08:44:04 51°9.367 2°38.233 248.9 13.3 244.6 12
2003-02-14 08:44:08 51°9.36 2°38.212 248.9 13.4 244.7 12
2003-02-14 08:44:14 51°9.351 2°38.18 248.4 13.3 246.2 11.9
2003-02-14 08:44:18 51°9.345 2°38.159 246.3 13.2 245.3 11.8
2003-02-14 08:44:24 51°9.336 2°38.127 249.2 13.3 245.2 12
2003-02-14 08:44:28 51°9.33 2°38.105 248.2 13.3 245.8 11.9
2003-02-14 08:44:34 51°9.32 2°38.074 247.7 13.2 244.6 11.8
2003-02-14 08:44:39 51°9.313 2°38.047 248.3 13.2 244.8 11.8
2003-02-14 08:44:43 51°9.306 2°38.026 248.2 13.4 244.7 11.9
2003-02-14 08:44:48 51°9.3 2°37.999 248.3 13.3 246.3 11.8
2003-02-14 08:44:54 51°9.29 2°37.967 247.9 13.3 244.5 11.8
2003-02-14 08:44:59 51°9.282 2°37.94 248.7 13.3 245.8 11.7
2003-02-14 08:45:03 51°9.276 2°37.919 248.8 13.3 245.4 11.7
2003-02-14 08:45:08 51°9.269 2°37.892 248.8 13.3 246.1 11.6
2003-02-14 08:45:14 51°9.259 2°37.861 247.7 13.2 244.9 11.7
2003-02-14 08:45:18 51°9.253 2°37.839 248.4 13.3 245.3 11.7
2003-02-14 08:45:23 51°9.245 2°37.812 248.6 13.3 245.3 11.5
2003-02-14 08:45:28 51°9.238 2°37.786 248.1 13.3 245.9 11.8
2003-02-14 08:45:34 51°9.228 2°37.754 248.2 13.3 245.9 11.7
2003-02-14 08:45:38 51°9.222 2°37.733 248.5 13.3 245.5 11.6
2003-02-14 08:45:44 51°9.213 2°37.701 248.7 13.3 245.6 11.7
2003-02-14 08:45:48 51°9.207 2°37.68 248.7 13.3 245.6 11.6
2003-02-14 08:45:54 51°9.197 2°37.649 246.8 13.1 244.1 11.7
2003-02-14 08:45:58 51°9.19 2°37.63 245.8 13 243.5 11.7
2003-02-14 08:46:04 51°9.18 2°37.603 243.3 12.3 241.2 11.5
2003-02-14 08:46:08 51°9.173 2°37.586 240.9 11.7 238.4 11.7
2003-02-14 08:46:14 51°9.164 2°37.561 241.6 11.2 238.1 11.7
2003-02-14 08:46:18 51°9.158 2°37.545 242.3 10.8 238.2 11.5
2003-02-14 08:46:24 51°9.15 2°37.521 244.4 10.4 240.5 11.7
2003-02-14 08:46:28 51°9.145 2°37.505 247.5 10.2 242 11.4
2003-02-14 08:46:34 51°9.139 2°37.481 249.4 10.2 242 11.6
2003-02-14 08:46:39 51°9.134 2°37.462 251.5 9.7 247.4 11.5
2003-02-14 08:46:44 51°9.129 2°37.443 252 9.4 248.5 11.4
2003-02-14 08:46:48 51°9.126 2°37.429 252.1 8.9 248.8 11.5
2003-02-14 08:46:54 51°9.121 2°37.409 252.6 8.7 249.2 11.6
2003-02-14 08:46:58 51°9.118 2°37.396 252.9 8.2 249.2 11.8
2003-02-14 08:47:04 51°9.114 2°37.378 253.6 7.6 250 11.8
2003-02-14 08:47:08 51°9.112 2°37.366 254.7 7.4 250.7 11.7
2003-02-14 08:47:14 51°9.108 2°37.349 255.6 7 251.4 11.7
2003-02-14 08:47:19 51°9.106 2°37.335 257 6.7 253.1 11.5
2003-02-14 08:47:24 51°9.104 2°37.322 258.5 6.4 254.8 11.7
2003-02-14 08:47:28 51°9.103 2°37.312 260.6 6 257.1 11.7
2003-02-14 08:47:34 51°9.101 2°37.298 262.8 5.7 258.5 11.6
2003-02-14 08:47:38 51°9.101 2°37.289 265.1 5.3 261.6 11.4
2003-02-14 08:47:44 51°9.1 2°37.276 267.5 5.1 263.9 11.5
2003-02-14 08:47:49 51°9.1 2°37.267 270 4.7 266.2 11.7
2003-02-14 08:47:54 51°9.1 2°37.259 271 4.2 268 11.7
2003-02-14 08:47:59 51°9.099 2°37.253 268.7 3.6 268.7 11.7
2003-02-14 08:48:04 51°9.099 2°37.248 264.6 2.9 266.3 11.6
2003-02-14 08:48:08 51°9.099 2°37.245 258.8 2.1 261 11.6
2003-02-14 08:48:14 51°9.098 2°37.242 252.7 1.4 255.4 11.6
2003-02-14 08:48:18 51°9.098 2°37.242 247.3 0.9 250.5 11.8
2003-02-14 08:48:24 51°9.098 2°37.242 243.5 0.4 240 11.7
2003-02-14 08:48:28 51°9.098 2°37.241 240.7 0.1 206.9 11.7
2003-02-14 08:48:34 51°9.097 2°37.242 237.6 0.1 146.8 11.6
2003-02-14 08:48:39 51°9.097 2°37.241 234.5 0.1 164.1 11.6
2003-02-14 08:48:44 51°9.096 2°37.241 232.2 0.1 164.1 11.7
2003-02-14 08:48:48 51°9.096 2°37.241 229.8 0.3 192.7 11.6
2003-02-14 08:48:52 51°9.095 2°37.241 227.4 0.5 201.7 11.6
2003-02-14 08:48:58 51°9.094 2°37.24 225.7 0.6 204.8 11.7
2003-02-14 08:49:04 51°9.093 2°37.239 224.2 0.7 203.1 11.6
2003-02-14 08:49:08 51°9.092 2°37.239 223.1 0.9 203.7 11.6
2003-02-14 08:49:14 51°9.09 2°37.237 222.6 1 206.7 11.7
2003-02-14 08:49:19 51°9.089 2°37.236 222.3 1.1 206.5 11.7
2003-02-14 08:49:23 51°9.088 2°37.235 222 1.1 205.5 11.7
2003-02-14 08:49:28 51°9.086 2°37.234 221.8 1.1 203.5 11.6
2003-02-14 08:49:34 51°9.085 2°37.233 221.8 1.1 203.3 11.6
2003-02-14 08:49:38 51°9.084 2°37.232 221.9 1 202.1 11.7
2003-02-14 08:49:43 51°9.082 2°37.231 222 1 200.8 11.7
2003-02-14 08:49:48 51°9.081 2°37.231 222 1 200.3 11.5
2003-02-14 08:49:54 51°9.08 2°37.23 222.2 1 199.9 11.5
2003-02-14 08:49:58 51°9.079 2°37.23 222.3 1 200.3 11.6
2003-02-14 08:50:04 51°9.077 2°37.229 222.7 1 199.1 11.6
2003-02-14 08:50:08 51°9.076 2°37.228 222.8 1 199.1 11.6
2003-02-14 08:50:14 51°9.075 2°37.227 223 0.9 200.5 11.6
2003-02-14 08:50:18 51°9.074 2°37.227 223.3 0.9 200.9 11.6
2003-02-14 08:50:24 51°9.073 2°37.226 223.5 0.9 200.3 11.6
2003-02-14 08:50:28 51°9.072 2°37.226 223.7 0.9 200 11.6
2003-02-14 08:50:34 51°9.071 2°37.225 223.9 0.8 200.8 11.5
2003-02-14 08:50:38 51°9.07 2°37.225 224.1 0.8 201.7 11.4
2003-02-14 08:50:43 51°9.069 2°37.224 224.2 0.8 199.7 11.5
2003-02-14 08:50:48 51°9.068 2°37.223 224.3 0.8 200.8 11.6
2003-02-14 08:50:54 51°9.066 2°37.223 224.3 0.8 200.8 11.5
2003-02-14 08:50:58 51°9.066 2°37.223 224.4 0.8 201.6 11.4
2003-02-14 08:51:03 51°9.064 2°37.222 224.5 0.8 200.9 11.5
2003-02-14 08:51:08 51°9.063 2°37.221 224.8 0.8 200.3 11.6
2003-02-14 08:51:14 51°9.062 2°37.22 224.8 0.8 196.7 11.5
2003-02-14 08:51:18 51°9.062 2°37.22 224.6 0.7 198.1 11.6
2003-02-14 08:51:24 51°9.061 2°37.22 224.2 0.7 196.2 11.6
2003-02-14 08:51:28 51°9.06 2°37.219 223.8 0.7 195.6 11.5
2003-02-14 08:51:34 51°9.059 2°37.219 223.2 0.7 195.1 11.5
2003-02-14 08:51:39 51°9.058 2°37.218 222.8 0.7 192.8 11.4
2003-02-14 08:51:43 51°9.057 2°37.218 222 0.7 190.1 11.4
2003-02-14 08:51:48 51°9.056 2°37.218 221.1 0.7 188.6 11.4
2003-02-14 08:51:54 51°9.055 2°37.218 220.5 0.7 190.3 11.3
2003-02-14 08:51:59 51°9.054 2°37.218 219.9 0.6 190 11.4
2003-02-14 08:52:03 51°9.054 2°37.217 219.2 0.6 186.5 11.5
2003-02-14 08:52:08 51°9.053 2°37.218 218.7 0.6 183 11.5
2003-02-14 08:52:13 51°9.052 2°37.218 217.9 0.6 181.8 11.5
2003-02-14 08:52:18 51°9.051 2°37.218 217.3 0.6 180 11.5
2003-02-14 08:52:23 51°9.05 2°37.218 216.8 0.6 176.9 11.6
2003-02-14 08:52:28 51°9.049 2°37.218 216.1 0.6 173.8 11.4
2003-02-14 08:52:34 51°9.048 2°37.218 215.7 0.5 172 11.4
2003-02-14 08:52:38 51°9.048 2°37.218 215.4 0.5 171.1 11.4
2003-02-14 08:52:43 51°9.047 2°37.218 215.3 0.5 169.9 11.5
2003-02-14 08:52:48 51°9.046 2°37.219 215.1 0.5 164.9 11.5
2003-02-14 08:52:54 51°9.046 2°37.219 215.1 0.5 164.2 11.4
2003-02-14 08:52:59 51°9.045 2°37.22 214.9 0.5 161.5 11.4
2003-02-14 08:53:03 51°9.044 2°37.221 214.9 0.5 157.4 11.3
2003-02-14 08:53:08 51°9.044 2°37.221 214.8 0.5 159.1 11.5
2003-02-14 08:53:14 51°9.043 2°37.221 214.8 0.5 157.8 11.5
2003-02-14 08:53:18 51°9.043 2°37.221 214.8 0.4 156.4 11.5
2003-02-14 08:53:24 51°9.042 2°37.222 214.8 0.4 156.4 11.6
2003-02-14 08:53:28 51°9.042 2°37.222 214.8 0.4 154 11.5
2003-02-14 08:53:33 51°9.041 2°37.223 214.6 0.4 150 11.5
2003-02-14 08:53:39 51°9.041 2°37.224 214.6 0.4 150 11.5
2003-02-14 08:53:43 51°9.04 2°37.224 214.6 0.4 148.5 11.4
2003-02-14 08:53:48 51°9.04 2°37.225 214.6 0.4 148.1 11.4
2003-02-14 08:53:53 51°9.039 2°37.225 214.7 0.4 145.1 11.5
2003-02-14 08:53:58 51°9.039 2°37.225 214.8 0.4 140.7 11.5
2003-02-14 08:54:04 51°9.039 2°37.226 215 0.4 140.7 11.5
2003-02-14 08:54:08 51°9.038 2°37.226 215.1 0.4 135.5 11.5
2003-02-14 08:54:13 51°9.038 2°37.227 215.2 0.4 140.8 11.4
2003-02-14 08:54:18 51°9.038 2°37.227 215.1 0.4 137.6 11.4
2003-02-14 08:54:23 51°9.037 2°37.228 215.3 0.4 137.3 11.5
2003-02-14 08:54:28 51°9.037 2°37.229 215.5 0.4 136.1 11.4
2003-02-14 08:54:33 51°9.036 2°37.229 215.5 0.4 134.1 11.4
2003-02-14 08:54:39 51°9.036 2°37.23 215.7 0.4 129.6 11.4
2003-02-14 08:54:43 51°9.036 2°37.23 215.7 0.4 128.6 11.4
2003-02-14 08:54:48 51°9.036 2°37.231 215.9 0.4 126.1 11.4
2003-02-14 08:54:54 51°9.035 2°37.232 216 0.4 126.6 11.3
2003-02-14 08:54:58 51°9.035 2°37.233 216.1 0.4 124.9 11.3
2003-02-14 08:55:04 51°9.035 2°37.233 216.1 0.4 123.7 11.3
2003-02-14 08:55:08 51°9.035 2°37.234 216.3 0.4 124.1 11.5
2003-02-14 08:55:14 51°9.034 2°37.235 216.8 0.4 121 11.4
2003-02-14 08:55:19 51°9.034 2°37.236 217 0.4 120.3 11.5
2003-02-14 08:55:24 51°9.034 2°37.236 217.2 0.4 119.9 11.5
2003-02-14 08:55:28 51°9.033 2°37.237 217.4 0.4 122.2 11.4
2003-02-14 08:55:34 51°9.033 2°37.238 217.4 0.4 120 11.4
2003-02-14 08:55:39 51°9.033 2°37.238 217.7 0.4 119.4 11.3
2003-02-14 08:55:44 51°9.033 2°37.239 217.7 0.3 117.6 11.3
2003-02-14 08:55:48 51°9.033 2°37.24 217.7 0.3 111.5 11.4
2003-02-14 08:55:54 51°9.033 2°37.24 218 0.3 110.7 11.4
2003-02-14 08:55:58 51°9.032 2°37.241 218 0.4 108.3 11.3
2003-02-14 08:56:03 51°9.032 2°37.242 218.1 0.4 109.4 11.3
2003-02-14 08:56:08 51°9.032 2°37.242 218.4 0.4 109.3 11.4
2003-02-14 08:56:13 51°9.032 2°37.243 218.6 0.4 109.5 11.5
2003-02-14 08:56:19 51°9.032 2°37.244 218.8 0.4 107.4 11.4
2003-02-14 08:56:24 51°9.032 2°37.245 218.8 0.4 107.7 11.4
2003-02-14 08:56:28 51°9.031 2°37.246 219.1 0.4 107.7 11.4
2003-02-14 08:56:34 51°9.031 2°37.247 219.2 0.4 110.1 11.3
2003-02-14 08:56:39 51°9.031 2°37.247 219.5 0.4 110.6 11.2
2003-02-14 08:56:44 51°9.031 2°37.248 219.8 0.4 111.9 11.4
2003-02-14 08:56:48 51°9.031 2°37.248 220 0.3 108.8 11.5
2003-02-14 08:56:54 51°9.03 2°37.249 220.4 0.3 108.8 11.4
2003-02-14 08:56:58 51°9.03 2°37.249 220.5 0.3 103.9 11.4
2003-02-14 08:57:04 51°9.03 2°37.25 220.6 0.3 103.5 11.4
2003-02-14 08:57:08 51°9.03 2°37.251 220.7 0.3 96.6 11.3
2003-02-14 08:57:14 51°9.03 2°37.251 220.7 0.3 99.7 11.3
2003-02-14 08:57:18 51°9.03 2°37.252 220.9 0.3 101.6 11.3
2003-02-14 08:57:23 51°9.03 2°37.253 220.8 0.3 95.4 11.3
2003-02-14 08:57:28 51°9.03 2°37.253 220.7 0.3 101 11.3
2003-02-14 08:57:34 51°9.03 2°37.254 220.9 0.3 100.9 11.3
2003-02-14 08:57:38 51°9.03 2°37.254 220.6 0.4 99.6 11.4
2003-02-14 08:57:43 51°9.03 2°37.254 220.5 0.3 92.9 11.4
2003-02-14 08:57:48 51°9.03 2°37.256 220.1 0.3 92.6 11.4
2003-02-14 08:57:53 51°9.03 2°37.257 219.8 0.3 93.5 11.4
2003-02-14 08:57:59 51°9.03 2°37.258 219.4 0.4 91.9 11.5
2003-02-14 08:58:03 51°9.03 2°37.259 219.1 0.4 93.6 11.3
2003-02-14 08:58:08 51°9.03 2°37.26 218.4 0.4 96.5 11.4
2003-02-14 08:58:13 51°9.03 2°37.261 218.3 0.4 97.6 11.3
2003-02-14 08:58:19 51°9.03 2°37.262 218 0.4 99.4 11.3
2003-02-14 08:58:23 51°9.03 2°37.263 217.7 0.4 101.7 11.4
2003-02-14 08:58:28 51°9.03 2°37.263 217.5 0.4 105 11.4
2003-02-14 08:58:33 51°9.029 2°37.264 217.2 0.4 103.5 11.4
2003-02-14 08:58:39 51°9.029 2°37.266 217 0.4 101.4 11.3
2003-02-14 08:58:43 51°9.029 2°37.266 216.6 0.4 101.1 11.4
2003-02-14 08:58:48 51°9.029 2°37.267 216.2 0.4 100.3 11.3
2003-02-14 08:58:54 51°9.029 2°37.267 215.8 0.4 100.3 11.4
2003-02-14 08:58:58 51°9.029 2°37.268 215.5 0.4 101.8 11.4
2003-02-14 08:59:04 51°9.029 2°37.268 215 0.4 102.2 11.3
2003-02-14 08:59:08 51°9.029 2°37.269 214.4 0.4 103.3 11.4
2003-02-14 08:59:14 51°9.029 2°37.271 214 0.4 106.6 11.3
2003-02-14 08:59:19 51°9.029 2°37.271 213.3 0.4 105.6 11.4
2003-02-14 08:59:24 51°9.029 2°37.272 213 0.4 101.7 11.4
2003-02-14 08:59:28 51°9.029 2°37.273 212.1 0.4 98.7 11.4
2003-02-14 08:59:34 51°9.028 2°37.274 211.7 0.4 98.1 11.4
2003-02-14 08:59:39 51°9.028 2°37.275 211 0.4 99 11.4
2003-02-14 08:59:44 51°9.028 2°37.276 210.3 0.5 100.7 11.3
2003-02-14 08:59:48 51°9.029 2°37.277 209.3 0.5 102.3 11.4
2003-02-14 08:59:54 51°9.028 2°37.278 208.7 0.5 100.7 11.4
2003-02-14 08:59:58 51°9.028 2°37.279 207.8 0.5 99.5 11.4
2003-02-14 09:00:03 51°9.028 2°37.28 207 0.5 100.4 11.4
2003-02-14 09:00:08 51°9.028 2°37.281 206.1 0.5 100 11.3
2003-02-14 09:00:14 51°9.028 2°37.282 205.3 0.5 96 11.3
2003-02-14 09:00:19 51°9.028 2°37.283 204.6 0.5 94.1 11.4
2003-02-14 09:00:24 51°9.028 2°37.284 203.8 0.6 92.7 11.3
2003-02-14 09:00:28 51°9.028 2°37.286 203.2 0.6 97.6 11.4
2003-02-14 09:00:34 51°9.028 2°37.287 202.5 0.6 98.6 11.5
2003-02-14 09:00:38 51°9.028 2°37.288 201.7 0.7 102.2 11.4
2003-02-14 09:00:43 51°9.028 2°37.29 200.7 0.7 100.3 11.4
2003-02-14 09:00:48 51°9.028 2°37.291 200.1 0.6 97.7 11.5
2003-02-14 09:00:54 51°9.028 2°37.292 199.3 0.6 93.3 11.3
2003-02-14 09:00:59 51°9.028 2°37.294 198.7 0.6 93.3 11.4
2003-02-14 09:01:04 51°9.028 2°37.295 197.9 0.6 90.3 11.4
2003-02-14 09:01:08 51°9.028 2°37.296 197.1 0.6 91.4 11.4
2003-02-14 09:01:13 51°9.028 2°37.298 196.3 0.6 91.5 11.4
2003-02-14 09:01:18 51°9.028 2°37.299 195.6 0.7 92.5 11.4
2003-02-14 09:01:23 51°9.028 2°37.301 194.8 0.7 91.3 11.4
2003-02-14 09:01:28 51°9.028 2°37.302 193.9 0.7 90.3 11.4
2003-02-14 09:01:34 51°9.028 2°37.303 193.2 0.7 92.8 11.3
2003-02-14 09:01:38 51°9.028 2°37.305 192.2 0.7 93.4 11.4
2003-02-14 09:01:43 51°9.028 2°37.306 191.5 0.7 92.6 11.4
2003-02-14 09:01:48 51°9.028 2°37.308 190.8 0.7 88.5 11.4
2003-02-14 09:01:54 51°9.028 2°37.31 190.1 0.7 88.7 11.4
2003-02-14 09:01:58 51°9.028 2°37.311 189.4 0.7 89.7 11.4
2003-02-14 09:02:03 51°9.028 2°37.313 188.6 0.8 91.8 11.4
2003-02-14 09:02:08 51°9.028 2°37.314 188.1 0.8 91.5 11.4
2003-02-14 09:02:14 51°9.028 2°37.316 187.6 0.8 92.9 11.4
2003-02-14 09:02:18 51°9.028 2°37.317 186.6 0.7 88.9 11.5
2003-02-14 09:02:24 51°9.029 2°37.319 186.4 0.7 86.1 11.5
2003-02-14 09:02:28 51°9.029 2°37.32 185.6 0.7 84.6 11.4
2003-02-14 09:02:34 51°9.029 2°37.322 185.1 0.7 83.8 11.5
2003-02-14 09:02:38 51°9.029 2°37.324 184.5 0.7 83.8 11.5
2003-02-14 09:02:43 51°9.029 2°37.325 183.6 0.7 85 11.5
2003-02-14 09:02:48 51°9.029 2°37.327 183 0.7 85 11.5
2003-02-14 09:02:54 51°9.029 2°37.329 182.5 0.8 84.7 11.4
2003-02-14 09:02:59 51°9.029 2°37.331 181.9 0.8 84.7 11.4
2003-02-14 09:03:04 51°9.029 2°37.333 181.4 0.8 86 11.4
2003-02-14 09:03:08 51°9.029 2°37.334 180.8 0.7 85.7 11.5
2003-02-14 09:03:14 51°9.029 2°37.336 180.2 0.7 83.9 11.4
2003-02-14 09:03:19 51°9.029 2°37.338 179.6 0.8 82.7 11.5
2003-02-14 09:03:23 51°9.03 2°37.339 179.1 0.8 83.5 11.5
2003-02-14 09:03:28 51°9.03 2°37.34 178.3 0.8 84.6 11.5
2003-02-14 09:03:34 51°9.03 2°37.342 177.8 0.8 84.1 11.5
2003-02-14 09:03:38 51°9.03 2°37.344 177 0.8 87 11.4
2003-02-14 09:03:43 51°9.03 2°37.346 176.3 0.8 87.5 11.4
2003-02-14 09:03:48 51°9.03 2°37.347 175.5 0.8 86.9 11.4
2003-02-14 09:03:54 51°9.03 2°37.349 175 0.8 85.4 11.5
2003-02-14 09:03:59 51°9.031 2°37.351 174.2 0.8 84.4 11.5
2003-02-14 09:04:03 51°9.031 2°37.353 173.5 0.8 84 11.5
2003-02-14 09:04:08 51°9.031 2°37.355 172.8 0.8 83.6 11.4
2003-02-14 09:04:14 51°9.031 2°37.357 172.2 0.8 82.6 11.4
2003-02-14 09:04:19 51°9.031 2°37.359 171.7 0.8 83.7 11.3
2003-02-14 09:04:23 51°9.031 2°37.36 171.1 0.8 82.1 11.4
2003-02-14 09:04:28 51°9.031 2°37.362 170.5 0.8 84.3 11.5